createdAt,value
2018-12-16T00:02:08.443Z,51.00
2018-12-16T00:04:37.141Z,53.50
2018-12-16T00:07:05.579Z,56.53
2018-12-16T00:09:33.761Z,58.60
2018-12-16T00:12:02.124Z,56.07
2018-12-16T00:14:30.309Z,61.53
2018-12-16T00:16:58.679Z,58.20
2018-12-16T00:19:26.996Z,59.80
2018-12-16T00:21:55.181Z,64.53
2018-12-16T00:24:23.794Z,70.90
2018-12-16T00:27:03.360Z,57.47
2018-12-16T00:29:31.636Z,57.77
2018-12-16T00:31:59.921Z,63.37
2018-12-16T00:34:28.214Z,57.87
2018-12-16T00:36:56.534Z,55.37
2018-12-16T00:39:24.874Z,67.47
2018-12-16T00:41:53.023Z,57.13
2018-12-16T00:44:21.348Z,60.30
2018-12-16T00:46:49.608Z,55.23
2018-12-16T00:49:17.900Z,67.80
2018-12-16T00:51:46.291Z,65.77
2018-12-16T00:54:14.613Z,57.27
2018-12-16T00:56:42.812Z,64.00
2018-12-16T00:59:10.952Z,63.93
2018-12-16T01:01:39.246Z,85.43
2018-12-16T01:04:07.519Z,70.93
2018-12-16T01:06:35.800Z,64.20
2018-12-16T01:09:06.889Z,57.53
2018-12-16T01:11:35.152Z,59.80
2018-12-16T01:14:03.470Z,58.70
2018-12-16T01:16:31.768Z,64.63
2018-12-16T01:19:00.079Z,66.53
2018-12-16T01:21:28.347Z,58.17
2018-12-16T01:23:56.659Z,65.23
2018-12-16T01:26:24.868Z,64.60
2018-12-16T01:28:53.139Z,54.73
2018-12-16T01:31:21.499Z,60.37
2018-12-16T01:33:49.761Z,60.73
2018-12-16T01:36:18.032Z,58.10
2018-12-16T01:38:46.282Z,58.50
2018-12-16T01:41:14.590Z,65.03
2018-12-16T01:43:42.868Z,65.40
2018-12-16T01:46:11.193Z,59.73
2018-12-16T01:48:39.438Z,59.30
2018-12-16T01:51:07.671Z,55.40
2018-12-16T01:53:35.947Z,56.43
2018-12-16T01:56:04.107Z,61.03
2018-12-16T01:58:32.377Z,57.27
2018-12-16T02:01:00.552Z,62.57
2018-12-16T02:03:28.740Z,57.50
2018-12-16T02:05:57.091Z,58.50
2018-12-16T02:08:26.222Z,59.63
2018-12-16T02:10:54.527Z,61.83
2018-12-16T02:13:22.811Z,67.90
2018-12-16T02:15:50.973Z,60.27
2018-12-16T02:18:19.261Z,60.80
2018-12-16T02:20:47.465Z,59.77
2018-12-16T02:23:15.629Z,55.27
2018-12-16T02:25:43.843Z,60.07
2018-12-16T02:28:12.091Z,63.37
2018-12-16T02:30:40.491Z,65.57
2018-12-16T02:33:08.786Z,60.77
2018-12-16T02:35:36.995Z,57.93
2018-12-16T02:38:05.294Z,59.40
2018-12-16T02:40:33.691Z,59.97
2018-12-16T02:43:01.967Z,60.37
2018-12-16T02:45:30.296Z,62.50
2018-12-16T02:47:58.664Z,63.40
2018-12-16T02:50:26.949Z,57.43
2018-12-16T02:52:55.162Z,57.93
2018-12-16T02:55:23.504Z,62.60
2018-12-16T02:57:51.725Z,62.37
2018-12-16T03:00:19.867Z,54.97
2018-12-16T03:02:48.076Z,65.27
2018-12-16T03:05:16.283Z,53.27
2018-12-16T03:07:44.585Z,66.77
2018-12-16T03:10:13.008Z,66.97
2018-12-16T03:12:41.305Z,55.87
2018-12-16T03:15:09.578Z,62.40
2018-12-16T03:17:37.945Z,65.17
2018-12-16T03:20:06.468Z,63.10
2018-12-16T03:22:34.734Z,56.57
2018-12-16T03:25:03.082Z,67.17
2018-12-16T03:27:31.385Z,59.03
2018-12-16T03:29:59.613Z,55.43
2018-12-16T03:32:27.865Z,60.93
2018-12-16T03:34:56.186Z,55.47
2018-12-16T03:37:24.564Z,59.90
2018-12-16T03:39:52.859Z,55.97
2018-12-16T03:42:21.076Z,56.13
2018-12-16T03:44:49.462Z,57.40
2018-12-16T03:47:17.716Z,56.10
2018-12-16T03:49:45.877Z,59.50
2018-12-16T03:52:14.088Z,52.90
2018-12-16T03:54:42.360Z,58.37
2018-12-16T03:57:10.628Z,62.57
2018-12-16T03:59:38.887Z,61.93
2018-12-16T04:02:07.204Z,54.83
2018-12-16T04:04:35.532Z,59.07
2018-12-16T04:07:03.882Z,58.30
2018-12-16T04:09:32.108Z,69.93
2018-12-16T04:12:00.480Z,68.10
2018-12-16T04:14:28.808Z,74.30
2018-12-16T04:16:57.019Z,55.90
2018-12-16T04:19:25.212Z,68.93
2018-12-16T04:21:53.506Z,58.30
2018-12-16T04:24:21.812Z,69.80
2018-12-16T04:26:50.176Z,60.77
2018-12-16T04:29:18.385Z,62.60
2018-12-16T04:31:46.669Z,55.47
2018-12-16T04:34:14.860Z,62.50
2018-12-16T04:36:43.139Z,63.53
2018-12-16T04:39:11.314Z,68.13
2018-12-16T04:41:39.531Z,60.27
2018-12-16T04:44:07.840Z,58.93
2018-12-16T04:46:36.080Z,56.80
2018-12-16T04:49:04.986Z,65.47
2018-12-16T04:51:33.151Z,59.00
2018-12-16T04:54:01.360Z,58.60
2018-12-16T04:56:29.612Z,57.07
2018-12-16T04:58:57.741Z,53.23
2018-12-16T05:01:26.001Z,65.10
2018-12-16T05:03:54.336Z,59.20
2018-12-16T05:06:22.489Z,63.50
2018-12-16T05:08:50.711Z,59.27
2018-12-16T05:11:18.977Z,60.03
2018-12-16T05:13:47.287Z,55.00
2018-12-16T05:16:15.514Z,62.53
2018-12-16T05:18:43.672Z,64.60
2018-12-16T05:21:11.851Z,55.33
2018-12-16T05:23:42.055Z,59.90
2018-12-16T05:26:10.249Z,62.57
2018-12-16T05:28:38.448Z,67.73
2018-12-16T05:31:06.620Z,54.37
2018-12-16T05:33:34.849Z,57.00
2018-12-16T05:36:03.067Z,64.33
2018-12-16T05:38:31.349Z,59.30
2018-12-16T05:40:59.519Z,53.00
2018-12-16T05:43:27.710Z,54.77
2018-12-16T05:45:55.997Z,57.37
2018-12-16T05:48:24.224Z,63.33
2018-12-16T05:50:52.512Z,59.07
2018-12-16T05:53:20.815Z,56.63
2018-12-16T05:55:48.991Z,54.03
2018-12-16T05:58:17.180Z,52.30
2018-12-16T06:00:45.409Z,63.37
2018-12-16T06:03:13.654Z,58.73
2018-12-16T06:05:41.868Z,62.17
2018-12-16T06:08:10.388Z,61.43
2018-12-16T06:10:38.608Z,60.00
2018-12-16T06:13:06.779Z,54.63
2018-12-16T06:15:35.106Z,55.90
2018-12-16T06:18:03.417Z,62.53
2018-12-16T06:20:31.703Z,63.00
2018-12-16T06:23:06.559Z,58.50
2018-12-16T06:25:34.921Z,66.23
2018-12-16T06:28:03.148Z,69.23
2018-12-16T06:30:34.216Z,57.07
2018-12-16T06:33:02.532Z,61.10
2018-12-16T06:35:30.765Z,69.57
2018-12-16T06:37:59.071Z,68.13
2018-12-16T06:40:27.296Z,52.73
2018-12-16T06:42:55.476Z,61.90
2018-12-16T06:45:23.733Z,64.87
2018-12-16T06:47:51.920Z,57.63
2018-12-16T06:50:20.096Z,64.13
2018-12-16T06:52:48.291Z,56.57
2018-12-16T06:55:16.489Z,57.43
2018-12-16T06:57:44.720Z,60.07
2018-12-16T07:00:13.063Z,57.67
2018-12-16T07:02:41.357Z,66.10
2018-12-16T07:05:09.632Z,56.70
2018-12-16T07:07:37.925Z,62.90
2018-12-16T07:10:06.112Z,55.27
2018-12-16T07:12:34.363Z,58.67
2018-12-16T07:15:02.646Z,66.10
2018-12-16T07:17:30.913Z,62.17
2018-12-16T07:19:59.155Z,58.17
2018-12-16T07:22:27.368Z,59.73
2018-12-16T07:24:55.676Z,63.70
2018-12-16T07:27:23.992Z,57.10
2018-12-16T07:29:52.136Z,64.70
2018-12-16T07:32:20.288Z,61.80
2018-12-16T07:34:48.554Z,55.63
2018-12-16T07:37:19.160Z,58.67
2018-12-16T07:39:46.940Z,65.37
2018-12-16T07:42:15.212Z,53.13
2018-12-16T07:44:43.517Z,59.10
2018-12-16T07:47:11.907Z,56.23
2018-12-16T07:49:40.154Z,72.37
2018-12-16T07:52:08.399Z,64.00
2018-12-16T07:54:36.779Z,60.80
2018-12-16T07:57:05.071Z,61.20
2018-12-16T07:59:33.400Z,54.83
2018-12-16T08:02:01.740Z,61.13
2018-12-16T08:04:30.167Z,55.73
2018-12-16T08:06:58.331Z,62.73
2018-12-16T08:09:26.523Z,56.93
2018-12-16T08:11:54.797Z,63.20
2018-12-16T08:14:23.019Z,54.83
2018-12-16T08:16:51.252Z,52.90
2018-12-16T08:19:19.862Z,70.47
2018-12-16T08:21:48.107Z,64.70
2018-12-16T08:24:22.960Z,61.53
2018-12-16T08:26:46.475Z,55.83
2018-12-16T08:29:14.842Z,60.43
2018-12-16T08:31:43.135Z,66.10
2018-12-16T08:34:11.313Z,68.93
2018-12-16T08:36:39.611Z,64.63
2018-12-16T08:39:07.935Z,64.57
2018-12-16T08:41:36.212Z,68.20
2018-12-16T08:44:04.630Z,64.60
2018-12-16T08:46:32.968Z,56.40
2018-12-16T08:49:01.265Z,69.10
2018-12-16T08:51:29.538Z,56.20
2018-12-16T08:53:57.696Z,58.70
2018-12-16T08:56:25.865Z,57.57
2018-12-16T08:58:54.132Z,60.83
2018-12-16T09:01:22.351Z,78.30
2018-12-16T09:03:51.015Z,62.93
2018-12-16T09:06:19.245Z,68.57
2018-12-16T09:08:47.801Z,62.37
2018-12-16T09:11:16.130Z,53.93
2018-12-16T09:13:44.429Z,72.03
2018-12-16T09:16:12.670Z,67.43
2018-12-16T09:18:40.907Z,81.03
2018-12-16T09:21:09.157Z,69.53
2018-12-16T09:23:37.460Z,70.70
2018-12-16T09:26:05.629Z,59.73
2018-12-16T09:28:33.814Z,67.93
2018-12-16T09:31:02.015Z,76.73
2018-12-16T09:33:30.239Z,66.20
2018-12-16T09:35:58.441Z,66.90
2018-12-16T09:38:26.731Z,65.40
2018-12-16T09:40:54.967Z,74.03
2018-12-16T09:43:23.189Z,59.17
2018-12-16T09:45:51.420Z,64.50
2018-12-16T09:48:19.747Z,63.93
2018-12-16T09:50:48.003Z,57.63
2018-12-16T09:53:16.284Z,64.20
2018-12-16T09:55:44.592Z,65.10
2018-12-16T09:58:13.018Z,54.33
2018-12-16T10:00:41.270Z,64.47
2018-12-16T10:03:09.527Z,74.93
2018-12-16T10:05:37.821Z,64.83
2018-12-16T10:08:06.074Z,58.00
2018-12-16T10:10:34.472Z,54.13
2018-12-16T10:13:02.683Z,56.67
2018-12-16T10:15:30.846Z,56.13
2018-12-16T10:17:59.067Z,53.30
2018-12-16T10:20:27.322Z,58.67
2018-12-16T10:22:55.496Z,61.23
2018-12-16T10:25:23.660Z,54.77
2018-12-16T10:27:51.831Z,62.80
2018-12-16T10:30:20.034Z,57.73
2018-12-16T10:32:48.274Z,63.43
2018-12-16T10:35:16.602Z,57.90
2018-12-16T10:37:44.869Z,55.17
2018-12-16T10:40:13.247Z,57.27
2018-12-16T10:42:50.855Z,60.33
2018-12-16T10:45:19.224Z,59.80
2018-12-16T10:47:47.406Z,62.93
2018-12-16T10:50:15.648Z,60.70
2018-12-16T10:52:43.818Z,59.27
2018-12-16T10:55:11.966Z,52.97
2018-12-16T10:57:40.114Z,55.93
2018-12-16T11:00:13.094Z,70.33
2018-12-16T11:02:41.352Z,58.40
2018-12-16T11:05:09.687Z,60.33
2018-12-16T11:07:37.839Z,64.87
2018-12-16T11:10:06.241Z,61.10
2018-12-16T11:12:35.839Z,57.93
2018-12-16T11:15:04.372Z,54.73
2018-12-16T11:17:32.542Z,59.60
2018-12-16T11:20:00.734Z,58.80
2018-12-16T11:22:28.902Z,52.60
2018-12-16T11:24:57.075Z,64.43
2018-12-16T11:27:25.427Z,51.17
2018-12-16T11:29:53.595Z,53.30
2018-12-16T11:32:21.842Z,56.47
2018-12-16T11:34:50.029Z,54.50
2018-12-16T11:37:18.290Z,58.60
2018-12-16T11:39:46.444Z,53.83
2018-12-16T11:42:14.576Z,54.33
2018-12-16T11:44:42.724Z,53.73
2018-12-16T11:47:10.895Z,59.47
2018-12-16T11:49:39.112Z,54.63
2018-12-16T11:52:07.284Z,51.47
2018-12-16T11:54:35.432Z,48.90
2018-12-16T11:57:03.617Z,50.40
2018-12-16T11:59:31.792Z,49.30
2018-12-16T12:01:59.968Z,50.80
2018-12-16T12:04:28.208Z,48.37
2018-12-16T12:06:56.476Z,51.00
2018-12-16T12:09:24.633Z,47.63
2018-12-16T12:11:52.776Z,49.70
2018-12-16T12:14:20.969Z,47.37
2018-12-16T12:16:49.110Z,50.00
2018-12-16T12:19:17.294Z,46.87
2018-12-16T12:21:45.626Z,49.70
2018-12-16T12:24:13.789Z,47.47
2018-12-16T12:26:41.944Z,47.77
2018-12-16T12:29:10.092Z,50.27
2018-12-16T12:31:39.232Z,47.30
2018-12-16T12:34:07.470Z,47.33
2018-12-16T12:36:35.628Z,47.87
2018-12-16T12:39:06.085Z,48.63
2018-12-16T12:41:34.235Z,49.97
2018-12-16T12:44:02.448Z,50.23
2018-12-16T12:46:30.596Z,47.50
2018-12-16T12:48:58.833Z,45.70
2018-12-16T12:51:26.983Z,46.37
2018-12-16T12:53:55.119Z,47.30
2018-12-16T12:56:23.375Z,47.30
2018-12-16T12:58:51.558Z,47.70
2018-12-16T13:01:19.753Z,46.23
2018-12-16T13:03:47.907Z,46.53
2018-12-16T13:06:16.148Z,46.17
2018-12-16T13:08:44.310Z,51.20
2018-12-16T13:11:12.455Z,47.73
2018-12-16T13:13:40.678Z,46.50
2018-12-16T13:16:08.853Z,47.10
2018-12-16T13:18:37.022Z,49.10
2018-12-16T13:21:05.193Z,46.07
2018-12-16T13:23:33.412Z,54.40
2018-12-16T13:26:03.211Z,47.07
2018-12-16T13:28:31.508Z,48.30
2018-12-16T13:30:59.943Z,50.37
2018-12-16T13:33:28.111Z,49.63
2018-12-16T13:35:56.263Z,47.13
2018-12-16T13:38:24.520Z,49.03
2018-12-16T13:40:52.807Z,49.13
2018-12-16T13:43:21.052Z,48.37
2018-12-16T13:45:49.199Z,46.47
2018-12-16T13:48:17.364Z,48.87
2018-12-16T13:50:45.577Z,46.40
2018-12-16T13:53:13.753Z,48.90
2018-12-16T13:55:41.998Z,47.30
2018-12-16T13:58:10.290Z,47.87
2018-12-16T14:00:38.470Z,47.30
2018-12-16T14:03:06.776Z,46.30
2018-12-16T14:05:35.075Z,47.93
2018-12-16T14:08:03.442Z,47.30
2018-12-16T14:10:32.798Z,46.20
2018-12-16T14:13:01.051Z,51.47
2018-12-16T14:15:29.361Z,46.87
2018-12-16T14:17:57.549Z,47.10
2018-12-16T14:20:25.778Z,47.97
2018-12-16T14:22:53.946Z,47.30
2018-12-16T14:25:22.129Z,48.43
2018-12-16T14:27:50.284Z,47.27
2018-12-16T14:30:18.403Z,47.80
2018-12-16T14:32:46.540Z,48.67
2018-12-16T14:35:14.848Z,46.63
2018-12-16T14:37:43.003Z,46.40
2018-12-16T14:40:11.354Z,47.80
2018-12-16T14:42:39.532Z,47.27
2018-12-16T14:45:09.388Z,47.03
2018-12-16T14:47:37.878Z,46.43
2018-12-16T14:50:08.900Z,47.90
2018-12-16T14:52:37.128Z,46.27
2018-12-16T14:55:06.836Z,50.83
2018-12-16T14:57:35.041Z,48.17
2018-12-16T15:00:04.432Z,51.13
2018-12-16T15:02:32.584Z,49.90
2018-12-16T15:05:00.772Z,48.50
2018-12-16T15:07:31.095Z,50.73
2018-12-16T15:09:59.403Z,48.90
2018-12-16T15:12:27.598Z,46.63
2018-12-16T15:14:55.950Z,47.00
2018-12-16T15:17:24.188Z,50.97
2018-12-16T15:19:52.388Z,51.80
2018-12-16T15:22:20.571Z,52.43
2018-12-16T15:24:48.745Z,49.07
2018-12-16T15:27:16.929Z,51.73
2018-12-16T15:29:45.109Z,49.37
2018-12-16T15:32:13.285Z,51.60
2018-12-16T15:34:41.521Z,54.17
2018-12-16T15:37:09.792Z,64.93
2018-12-16T15:39:37.952Z,50.97
2018-12-16T15:42:06.106Z,49.67
2018-12-16T15:44:34.399Z,49.03
2018-12-16T15:47:02.736Z,54.27
2018-12-16T15:49:30.999Z,55.27
2018-12-16T15:51:59.240Z,51.43
2018-12-16T15:54:27.374Z,52.00
2018-12-16T15:56:55.568Z,54.17
2018-12-16T15:59:23.828Z,53.55
2018-12-16T16:01:52.005Z,51.03
2018-12-16T16:04:20.160Z,53.83
2018-12-16T16:06:48.316Z,52.10
2018-12-16T16:09:16.494Z,53.73
2018-12-16T16:11:44.662Z,49.30
2018-12-16T16:14:12.832Z,48.70
2018-12-16T16:16:41.012Z,50.20
2018-12-16T16:19:09.212Z,47.60
2018-12-16T16:21:37.980Z,50.27
2018-12-16T16:24:17.640Z,49.63
2018-12-16T16:26:48.381Z,49.90
2018-12-16T16:29:16.639Z,49.40
2018-12-16T16:31:44.809Z,49.70
2018-12-16T16:34:13.062Z,49.90
2018-12-16T16:36:42.313Z,48.40
2018-12-16T16:39:10.630Z,48.27
2018-12-16T16:41:38.877Z,48.70
2018-12-16T16:44:07.097Z,48.50
2018-12-16T16:46:35.362Z,51.20
2018-12-16T16:49:03.711Z,51.33
2018-12-16T16:51:31.904Z,52.63
2018-12-16T16:54:00.107Z,53.67
2018-12-16T16:56:28.295Z,49.70
2018-12-16T16:58:56.551Z,49.43
2018-12-16T17:01:24.753Z,53.87
2018-12-16T17:03:52.915Z,49.67
2018-12-16T17:06:21.152Z,53.63
2018-12-16T17:08:49.329Z,53.90
2018-12-16T17:11:17.967Z,56.10
2018-12-16T17:13:46.416Z,47.73
2018-12-16T17:16:14.668Z,49.63
2018-12-16T17:18:43.139Z,51.30
2018-12-16T17:21:11.442Z,51.37
2018-12-16T17:23:39.724Z,51.00
2018-12-16T17:26:08.119Z,50.73
2018-12-16T17:28:36.314Z,53.80
2018-12-16T17:31:04.777Z,47.97
2018-12-16T17:33:33.028Z,50.40
2018-12-16T17:36:01.203Z,50.93
2018-12-16T17:38:29.400Z,52.20
2018-12-16T17:40:57.554Z,51.97
2018-12-16T17:43:25.732Z,50.20
2018-12-16T17:45:53.998Z,49.23
2018-12-16T17:48:22.183Z,51.13
2018-12-16T17:50:50.352Z,51.00
2018-12-16T17:53:18.511Z,52.47
2018-12-16T17:55:46.690Z,51.50
2018-12-16T17:58:14.852Z,50.67
2018-12-16T18:00:43.188Z,61.33
2018-12-16T18:03:11.347Z,54.07
2018-12-16T18:05:39.636Z,51.07
2018-12-16T18:08:07.973Z,50.17
2018-12-16T18:10:36.235Z,49.90
2018-12-16T18:13:04.507Z,48.93
2018-12-16T18:15:32.707Z,50.90
2018-12-16T18:18:00.886Z,49.27
2018-12-16T18:20:29.029Z,52.83
2018-12-16T18:22:57.185Z,49.13
2018-12-16T18:25:25.356Z,51.47
2018-12-16T18:27:53.534Z,50.93
2018-12-16T18:30:21.906Z,47.77
2018-12-16T18:32:50.164Z,50.33
2018-12-16T18:35:18.446Z,48.27
2018-12-16T18:37:46.744Z,47.83
2018-12-16T18:40:14.927Z,48.57
2018-12-16T18:42:43.144Z,49.57
2018-12-16T18:45:11.379Z,50.13
2018-12-16T18:47:39.567Z,50.60
2018-12-16T18:50:09.007Z,52.90
2018-12-16T18:52:37.310Z,52.10
2018-12-16T18:55:05.698Z,56.53
2018-12-16T18:57:33.852Z,51.30
2018-12-16T19:00:02.134Z,54.90
2018-12-16T19:02:30.344Z,51.13
2018-12-16T19:04:58.545Z,57.30
2018-12-16T19:07:26.739Z,50.90
2018-12-16T19:09:54.931Z,57.77
2018-12-16T19:12:23.143Z,49.00
2018-12-16T19:14:51.884Z,54.93
2018-12-16T19:17:20.144Z,53.00
2018-12-16T19:19:48.289Z,55.97
2018-12-16T19:22:16.507Z,57.53
2018-12-16T19:24:44.660Z,57.33
2018-12-16T19:27:12.824Z,52.97
2018-12-16T19:29:40.979Z,52.60
2018-12-16T19:32:09.145Z,56.47
2018-12-16T19:34:37.344Z,53.13
2018-12-16T19:37:05.494Z,49.77
2018-12-16T19:39:33.739Z,52.60
2018-12-16T19:42:01.967Z,49.37
2018-12-16T19:44:30.168Z,55.83
2018-12-16T19:46:58.424Z,49.73
2018-12-16T19:49:26.750Z,53.97
2018-12-16T19:51:54.925Z,50.33
2018-12-16T19:54:23.566Z,52.13
2018-12-16T19:56:52.065Z,55.33
2018-12-16T19:59:20.227Z,51.60
2018-12-16T20:01:48.580Z,53.93
2018-12-16T20:04:17.152Z,52.40
2018-12-16T20:06:47.551Z,61.57
2018-12-16T20:09:16.258Z,52.33
2018-12-16T20:11:44.407Z,54.40
2018-12-16T20:14:12.578Z,57.17
2018-12-16T20:16:40.908Z,55.50
2018-12-16T20:19:09.085Z,54.07
2018-12-16T20:21:37.328Z,60.50
2018-12-16T20:24:05.515Z,56.20
2018-12-16T20:26:33.704Z,61.93
2018-12-16T20:29:01.985Z,54.53
2018-12-16T20:31:30.164Z,59.13
2018-12-16T20:33:58.344Z,55.47
2018-12-16T20:36:26.603Z,55.17
2018-12-16T20:38:54.787Z,56.53
2018-12-16T20:41:23.049Z,54.27
2018-12-16T20:43:51.245Z,53.20
2018-12-16T20:46:19.438Z,59.63
2018-12-16T20:48:47.592Z,56.30
2018-12-16T20:51:15.781Z,52.20
2018-12-16T20:53:44.047Z,55.97
2018-12-16T20:56:12.209Z,62.10
2018-12-16T20:58:40.475Z,55.37
2018-12-16T21:01:08.655Z,53.37
2018-12-16T21:03:36.815Z,56.27
2018-12-16T21:06:04.988Z,53.20
2018-12-16T21:08:33.267Z,54.30
2018-12-16T21:11:05.672Z,52.23
2018-12-16T21:14:38.124Z,55.57
2018-12-16T21:17:11.694Z,56.13
2018-12-16T21:19:40.000Z,51.97
2018-12-16T21:22:11.062Z,57.77
2018-12-16T21:24:39.302Z,55.43
2018-12-16T21:27:07.992Z,51.47
2018-12-16T21:29:36.274Z,56.10
2018-12-16T21:32:04.592Z,59.60
2018-12-16T21:34:32.779Z,55.23
2018-12-16T21:37:00.988Z,57.40
2018-12-16T21:39:29.150Z,52.67
2018-12-16T21:41:57.351Z,57.70
2018-12-16T21:44:25.547Z,61.13
2018-12-16T21:46:53.765Z,53.50
2018-12-16T21:49:21.928Z,57.67
2018-12-16T21:51:50.245Z,60.27
2018-12-16T21:54:18.428Z,60.87
2018-12-16T21:56:46.652Z,55.30
2018-12-16T21:59:14.816Z,53.73
2018-12-16T22:01:42.970Z,57.93
2018-12-16T22:04:11.141Z,61.07
2018-12-16T22:06:39.407Z,58.17
2018-12-16T22:09:08.212Z,54.10
2018-12-16T22:11:36.382Z,54.13
2018-12-16T22:14:04.806Z,53.37
2018-12-16T22:16:32.939Z,54.90
2018-12-16T22:19:01.116Z,54.90
2018-12-16T22:21:29.323Z,55.13
2018-12-16T22:23:57.514Z,68.70
2018-12-16T22:26:25.724Z,54.30
2018-12-16T22:28:53.869Z,52.27
2018-12-16T22:31:22.043Z,54.53
2018-12-16T22:33:50.260Z,60.10
2018-12-16T22:36:18.488Z,52.77
2018-12-16T22:38:46.658Z,56.90
2018-12-16T22:41:14.851Z,69.17
2018-12-16T22:43:43.368Z,54.80
2018-12-16T22:46:11.803Z,54.30
2018-12-16T22:48:39.982Z,53.30
2018-12-16T22:51:08.139Z,61.93
2018-12-16T22:53:36.311Z,55.57
2018-12-16T22:56:04.509Z,56.00
2018-12-16T22:58:32.691Z,55.73
2018-12-16T23:01:06.269Z,53.43
2018-12-16T23:03:34.430Z,52.20
2018-12-16T23:06:02.795Z,55.17
2018-12-16T23:08:31.019Z,55.27
2018-12-16T23:10:59.247Z,57.90
2018-12-16T23:13:27.428Z,59.93
2018-12-16T23:15:55.627Z,54.17
2018-12-16T23:18:23.775Z,56.20
2018-12-16T23:20:51.904Z,55.40
2018-12-16T23:23:20.052Z,74.80
2018-12-16T23:25:48.224Z,65.13
2018-12-16T23:28:16.768Z,65.40
2018-12-16T23:30:44.908Z,54.40
2018-12-16T23:33:13.056Z,55.60
2018-12-16T23:35:41.369Z,53.60
2018-12-16T23:38:09.498Z,52.00
2018-12-16T23:40:37.647Z,55.73
2018-12-16T23:43:05.790Z,49.87
2018-12-16T23:45:33.996Z,51.40
2018-12-16T23:48:02.208Z,54.13
2018-12-16T23:50:30.340Z,54.83
2018-12-16T23:52:58.527Z,59.67
2018-12-16T23:55:26.717Z,52.73
2018-12-16T23:58:00.863Z,60.70
